Strona główna
METAR-TAF:

METAR-TAF

Lotnisko :

Port lotniczy Caracas

Caracas, Wenezuela

Szerokość geograficzna: 10-36N, Długość geograficzna: 066-59W, wysokość: 43 m

Aktualna obserwacja pogody

Raport powstał 1 godzina i 4 minut temu, godzina 13:00 UTC
Temperatura 27°C
Wilgotność 70%
Ciśnienie 1012 hPa
Widzialność 10 km lub więcej
Rozproszone chmury na wysokości 1600 ft

METAR: SVMI 241300Z /////KT SCT016 9999 27/21 Q1012

czas: 10:04 (14:04 UTC)

Prognoza

Raport powstał 10 godziny i 4 minut temu, godzina 04:00 UTC
Prognoza ważna od 24 godzina 06 UTC do 25 godzina 06 UTC
Wiatr 6 kt od północny wschód
Widzialność 10 km lub więcej
Rozproszone chmury na wysokości 1600 ft
Od 24 godzina 0830 UTC
Wiatr kt od północ
Widzialność 10 km lub więcej
Mało chmury na wysokości 1600 ft

TAF: SVMI 240400Z 2406/2506 05006KT 9999 SCT016 TX35/17Z TN26/07Z FM240830 00000KT 9999 FEW016

Obserwacja i prognoza pogody dla ponad 4000 lotnisk (raport METAR i TAF).

Dostępne stacje oznaczono żółtymi i czerwonymi punktami na mapie.

Najedź kursorem aby zobaczyć nazwę stacji.

Kliknij aby zobaczyć obserwacje i prognozy pogody.

Aby zmienić mapę: kliknij na zielony przycisk z czarnym krzyżykiem, aby powiększyć; na zielony przycisk z myślnikiem, aby pomniejszyć; na zielone strzałki, aby przejść do map sąsiednich.


METAR-TAF: